createdAt,value
2018-04-30T00:00:07.925Z,21.87
2018-04-30T00:02:36.440Z,22.50
2018-04-30T00:05:04.223Z,22.67
2018-04-30T00:07:32.005Z,24.10
2018-04-30T00:09:59.760Z,24.73
2018-04-30T00:12:27.580Z,22.80
2018-04-30T00:14:55.383Z,24.33
2018-04-30T00:17:23.059Z,22.77
2018-04-30T00:19:50.773Z,23.33
2018-04-30T00:22:18.482Z,22.70
2018-04-30T00:24:46.167Z,23.80
2018-04-30T00:27:14.635Z,25.07
2018-04-30T00:29:42.341Z,24.57
2018-04-30T00:32:10.041Z,24.87
2018-04-30T00:34:37.722Z,25.87
2018-04-30T00:37:06.349Z,26.77
2018-04-30T00:39:34.030Z,27.10
2018-04-30T00:42:02.485Z,27.47
2018-04-30T00:44:30.193Z,25.23
2018-04-30T00:46:58.041Z,25.07
2018-04-30T00:49:25.744Z,25.57
2018-04-30T00:51:54.237Z,25.73
2018-04-30T00:54:34.613Z,25.40
2018-04-30T00:57:02.322Z,26.03
2018-04-30T00:59:30.006Z,25.10
2018-04-30T01:01:58.469Z,24.37
2018-04-30T01:04:26.169Z,25.77
2018-04-30T01:06:53.885Z,24.43
2018-04-30T01:09:21.570Z,25.37
2018-04-30T01:11:50.215Z,27.13
2018-04-30T01:14:17.919Z,26.27
2018-04-30T01:16:46.357Z,27.30
2018-04-30T01:19:14.057Z,25.00
2018-04-30T01:21:42.626Z,26.90
2018-04-30T01:24:11.284Z,27.27
2018-04-30T01:26:38.993Z,26.40
2018-04-30T01:29:07.481Z,28.60
2018-04-30T01:31:35.394Z,26.63
2018-04-30T01:34:03.258Z,29.93
2018-04-30T01:36:30.959Z,29.30
2018-04-30T01:38:59.401Z,31.10
2018-04-30T01:41:27.105Z,33.97
2018-04-30T01:43:55.541Z,31.97
2018-04-30T01:46:23.229Z,33.67
2018-04-30T01:48:51.071Z,33.10
2018-04-30T01:51:18.770Z,35.10
2018-04-30T01:53:47.242Z,34.93
2018-04-30T01:56:14.945Z,34.70
2018-04-30T01:58:42.657Z,35.57
2018-04-30T02:01:10.497Z,35.97
2018-04-30T02:03:38.362Z,35.33
2018-04-30T02:06:06.069Z,37.27
2018-04-30T02:08:34.526Z,32.50
2018-04-30T02:11:02.253Z,33.53
2018-04-30T02:13:30.030Z,33.50
2018-04-30T02:15:57.769Z,33.77
2018-04-30T02:18:25.473Z,35.40
2018-04-30T02:20:53.157Z,34.63
2018-04-30T02:23:21.626Z,33.43
2018-04-30T02:25:49.325Z,34.63
2018-04-30T02:28:17.034Z,34.00
2018-04-30T02:30:44.723Z,32.57
2018-04-30T02:33:13.437Z,33.37
2018-04-30T02:35:42.051Z,29.93
2018-04-30T02:38:09.733Z,31.83
2018-04-30T02:40:37.445Z,30.50
2018-04-30T02:43:05.237Z,31.87
2018-04-30T02:45:33.102Z,29.07
2018-04-30T02:48:00.967Z,29.27
2018-04-30T02:50:28.649Z,32.97
2018-04-30T02:52:56.433Z,32.83
2018-04-30T02:55:24.911Z,32.33
2018-04-30T02:57:53.421Z,33.07
2018-04-30T03:00:21.113Z,33.53
2018-04-30T03:02:48.917Z,35.13
2018-04-30T03:05:17.377Z,35.27
2018-04-30T03:07:45.069Z,35.17
2018-04-30T03:10:13.704Z,36.07
2018-04-30T03:12:41.405Z,35.60
2018-04-30T03:15:09.852Z,35.80
2018-04-30T03:17:37.598Z,34.80
2018-04-30T03:20:05.274Z,36.40
2018-04-30T03:22:32.957Z,35.23
2018-04-30T03:25:00.732Z,36.40
2018-04-30T03:27:29.205Z,38.10
2018-04-30T03:29:57.653Z,38.20
2018-04-30T03:32:25.357Z,37.40
2018-04-30T03:34:53.803Z,37.67
2018-04-30T03:37:21.497Z,38.33
2018-04-30T03:39:49.978Z,38.87
2018-04-30T03:42:18.449Z,35.37
2018-04-30T03:44:46.941Z,35.17
2018-04-30T03:47:15.413Z,36.20
2018-04-30T03:49:44.101Z,36.27
2018-04-30T03:52:11.821Z,35.73
2018-04-30T03:54:39.687Z,36.30
2018-04-30T03:57:07.553Z,34.97
2018-04-30T03:59:35.237Z,35.40
2018-04-30T04:02:15.162Z,35.93
2018-04-30T04:04:54.804Z,35.07
2018-04-30T04:07:22.533Z,34.73
2018-04-30T04:09:50.218Z,36.07
2018-04-30T04:12:17.910Z,35.77
2018-04-30T04:14:45.650Z,35.77
2018-04-30T04:17:13.326Z,37.13
2018-04-30T04:19:41.035Z,36.17
2018-04-30T04:22:08.773Z,37.07
2018-04-30T04:24:37.234Z,36.67
2018-04-30T04:27:04.967Z,35.13
2018-04-30T04:29:32.681Z,35.00
2018-04-30T04:32:01.170Z,34.47
2018-04-30T04:34:29.620Z,33.10
2018-04-30T04:36:57.341Z,34.27
2018-04-30T04:39:25.048Z,35.20
2018-04-30T04:41:52.731Z,34.50
2018-04-30T04:44:21.233Z,33.03
2018-04-30T04:46:48.919Z,33.70
2018-04-30T04:49:16.634Z,31.93
2018-04-30T04:51:45.165Z,32.33
2018-04-30T04:54:12.935Z,33.00
2018-04-30T04:56:40.655Z,30.83
2018-04-30T04:59:08.386Z,31.00
2018-04-30T05:01:36.195Z,29.57
2018-04-30T05:04:03.884Z,28.30
2018-04-30T05:06:31.675Z,29.70
2018-04-30T05:08:59.357Z,29.03
2018-04-30T05:11:27.045Z,26.43
2018-04-30T05:13:54.801Z,27.77
2018-04-30T05:16:22.488Z,27.73
2018-04-30T05:18:50.179Z,26.27
2018-04-30T05:21:17.914Z,25.30
2018-04-30T05:23:45.625Z,24.67
2018-04-30T05:26:14.164Z,24.43
2018-04-30T05:28:41.873Z,22.70
2018-04-30T05:31:10.317Z,22.43
2018-04-30T05:33:38.003Z,23.10
2018-04-30T05:36:05.787Z,21.50
2018-04-30T05:38:33.470Z,21.43
2018-04-30T05:41:01.189Z,20.90
2018-04-30T05:43:29.674Z,20.13
2018-04-30T05:45:58.215Z,19.97
2018-04-30T05:48:25.915Z,17.70
2018-04-30T05:50:54.397Z,18.47
2018-04-30T05:53:23.143Z,18.13
2018-04-30T05:55:50.844Z,18.03
2018-04-30T05:58:19.325Z,17.60
2018-04-30T06:00:47.794Z,16.63
2018-04-30T06:03:15.498Z,17.17
2018-04-30T06:05:43.204Z,15.83
2018-04-30T06:08:10.901Z,16.17
2018-04-30T06:10:39.349Z,15.77
2018-04-30T06:13:07.061Z,16.43
2018-04-30T06:15:34.855Z,14.53
2018-04-30T06:18:02.541Z,14.13
2018-04-30T06:20:31.200Z,13.40
2018-04-30T06:22:58.972Z,13.57
2018-04-30T06:25:26.829Z,13.63
2018-04-30T06:27:54.694Z,12.07
2018-04-30T06:30:22.463Z,12.73
2018-04-30T06:32:50.180Z,12.03
2018-04-30T06:35:17.985Z,11.17
2018-04-30T06:37:45.747Z,11.17
2018-04-30T06:40:13.456Z,11.93
2018-04-30T06:42:42.033Z,11.37
2018-04-30T06:45:10.517Z,10.67
2018-04-30T06:47:39.034Z,9.93
2018-04-30T06:50:06.847Z,10.43
2018-04-30T06:52:34.522Z,10.03
2018-04-30T06:55:02.965Z,9.37
2018-04-30T06:57:30.706Z,10.27
2018-04-30T06:59:58.381Z,9.37
2018-04-30T07:02:26.084Z,9.80
2018-04-30T07:04:54.557Z,8.47
2018-04-30T07:07:23.025Z,8.77
2018-04-30T07:09:50.710Z,8.30
2018-04-30T07:12:19.180Z,7.93
2018-04-30T07:14:47.650Z,7.27
2018-04-30T07:17:15.329Z,7.07
2018-04-30T07:19:43.859Z,7.87
2018-04-30T07:22:11.540Z,7.17
2018-04-30T07:24:39.231Z,7.33
2018-04-30T07:27:07.753Z,8.40
2018-04-30T07:29:35.425Z,7.37
2018-04-30T07:32:03.139Z,7.77
2018-04-30T07:34:31.613Z,6.70
2018-04-30T07:37:00.077Z,7.23
2018-04-30T07:39:27.759Z,6.83
2018-04-30T07:41:56.229Z,6.77
2018-04-30T07:44:24.720Z,6.90
2018-04-30T07:46:53.161Z,7.27
2018-04-30T07:49:20.861Z,6.80
2018-04-30T07:51:48.621Z,7.53
2018-04-30T07:54:17.094Z,6.93
2018-04-30T07:56:45.573Z,6.93
2018-04-30T07:59:14.026Z,6.83
2018-04-30T08:01:41.730Z,6.63
2018-04-30T08:04:10.210Z,7.17
2018-04-30T08:06:37.921Z,6.23
2018-04-30T08:09:05.698Z,7.10
2018-04-30T08:11:33.522Z,5.70
2018-04-30T08:14:01.218Z,6.60
2018-04-30T08:16:28.937Z,5.67
2018-04-30T08:18:56.673Z,5.87
2018-04-30T08:21:25.114Z,6.13
2018-04-30T08:23:52.813Z,5.93
2018-04-30T08:26:21.293Z,5.47
2018-04-30T08:28:49.765Z,5.37
2018-04-30T08:31:17.450Z,5.80
2018-04-30T08:33:45.165Z,5.00
2018-04-30T08:36:12.901Z,4.83
2018-04-30T08:38:40.574Z,4.17
2018-04-30T08:41:08.506Z,4.37
2018-04-30T08:43:36.193Z,4.37
2018-04-30T08:46:04.885Z,4.43
2018-04-30T08:48:32.605Z,4.00
2018-04-30T08:51:01.047Z,4.20
2018-04-30T08:53:29.506Z,4.27
2018-04-30T08:55:58.326Z,3.93
2018-04-30T08:58:26.029Z,4.23
2018-04-30T09:00:53.713Z,4.20
2018-04-30T09:03:21.438Z,4.10
2018-04-30T09:05:49.885Z,4.10
2018-04-30T09:08:17.570Z,3.60
2018-04-30T09:10:46.049Z,3.87
2018-04-30T09:13:14.495Z,3.90
2018-04-30T09:15:42.202Z,4.23
2018-04-30T09:18:10.673Z,4.17
2018-04-30T09:20:39.145Z,4.50
2018-04-30T09:23:06.817Z,4.40
2018-04-30T09:25:35.285Z,3.87
2018-04-30T09:28:03.798Z,3.77
2018-04-30T09:30:31.485Z,3.80
2018-04-30T09:32:59.193Z,4.17
2018-04-30T09:35:27.639Z,4.07
2018-04-30T09:37:55.381Z,3.53
2018-04-30T09:40:23.103Z,4.77
2018-04-30T09:42:51.550Z,3.67
2018-04-30T09:45:19.249Z,4.03
2018-04-30T09:47:47.751Z,3.70
2018-04-30T09:50:15.461Z,3.60
2018-04-30T09:52:43.141Z,4.20
2018-04-30T09:55:11.621Z,4.40
2018-04-30T09:57:40.161Z,4.97
2018-04-30T10:00:07.834Z,4.33
2018-04-30T10:02:35.693Z,4.47
2018-04-30T10:05:03.376Z,4.53
2018-04-30T10:07:31.066Z,4.33
2018-04-30T10:09:58.797Z,4.53
2018-04-30T10:12:26.527Z,4.47
2018-04-30T10:14:54.207Z,4.30
2018-04-30T10:17:21.933Z,4.80
2018-04-30T10:19:49.614Z,5.10
2018-04-30T10:22:17.329Z,4.83
2018-04-30T10:24:45.809Z,4.77
2018-04-30T10:27:14.351Z,4.47
2018-04-30T10:29:42.058Z,5.53
2018-04-30T10:32:10.529Z,5.53
2018-04-30T10:34:39.009Z,4.37
2018-04-30T10:37:07.451Z,4.83
2018-04-30T10:39:35.193Z,3.97
2018-04-30T10:42:02.891Z,5.20
2018-04-30T10:44:30.610Z,5.27
2018-04-30T10:46:58.368Z,5.20
2018-04-30T10:49:26.051Z,5.03
2018-04-30T10:51:53.760Z,4.57
2018-04-30T10:54:22.268Z,4.40
2018-04-30T10:56:49.987Z,4.40
2018-04-30T10:59:17.666Z,4.80
2018-04-30T11:01:46.146Z,4.80
2018-04-30T11:04:14.589Z,4.03
2018-04-30T11:06:42.307Z,4.63
2018-04-30T11:09:10.012Z,5.20
2018-04-30T11:11:37.689Z,4.70
2018-04-30T11:14:05.397Z,4.93
2018-04-30T11:16:33.106Z,4.77
2018-04-30T11:19:00.808Z,5.33
2018-04-30T11:21:29.267Z,5.00
2018-04-30T11:23:56.989Z,4.13
2018-04-30T11:26:24.702Z,4.73
2018-04-30T11:28:53.141Z,4.83
2018-04-30T11:31:20.846Z,4.50
2018-04-30T11:33:49.322Z,4.73
2018-04-30T11:36:17.772Z,4.10
2018-04-30T11:38:45.486Z,4.63
2018-04-30T11:41:13.197Z,4.40
2018-04-30T11:43:40.890Z,4.70
2018-04-30T11:46:08.648Z,4.77
2018-04-30T11:48:36.366Z,4.63
2018-04-30T11:51:04.045Z,4.50
2018-04-30T11:53:31.773Z,3.97
2018-04-30T11:55:59.517Z,4.07
2018-04-30T11:58:27.242Z,4.07
2018-04-30T12:00:55.737Z,4.77
2018-04-30T12:03:24.217Z,4.80
2018-04-30T12:05:52.681Z,4.63
2018-04-30T12:08:21.169Z,4.37
2018-04-30T12:10:49.662Z,4.53
2018-04-30T12:13:18.117Z,4.37
2018-04-30T12:15:45.858Z,4.40
2018-04-30T12:18:13.581Z,4.27
2018-04-30T12:20:41.322Z,4.43
2018-04-30T12:23:09.813Z,3.57
2018-04-30T12:25:38.283Z,4.37
2018-04-30T12:28:06.798Z,3.87
2018-04-30T12:30:34.565Z,5.10
2018-04-30T12:33:02.291Z,4.50
2018-04-30T12:35:30.046Z,4.27
2018-04-30T12:37:57.790Z,3.97
2018-04-30T12:40:25.519Z,4.20
2018-04-30T12:42:53.242Z,5.17
2018-04-30T12:45:20.981Z,4.87
2018-04-30T12:48:01.354Z,5.90
2018-04-30T12:50:32.575Z,4.77
2018-04-30T12:53:14.694Z,5.10
2018-04-30T12:55:42.702Z,5.87
2018-04-30T12:58:10.407Z,4.53
2018-04-30T13:00:38.121Z,5.13
2018-04-30T13:08:46.079Z,4.60
2018-04-30T13:11:13.823Z,4.87
2018-04-30T13:13:48.201Z,4.33
2018-04-30T13:16:19.256Z,4.67
2018-04-30T13:18:47.818Z,5.60
2018-04-30T13:21:15.506Z,4.57
2018-04-30T13:23:43.989Z,6.30
2018-04-30T13:26:12.442Z,5.47
2018-04-30T13:28:41.682Z,5.67
2018-04-30T13:31:09.385Z,4.83
2018-04-30T13:33:37.078Z,5.87
2018-04-30T13:36:05.553Z,5.50
2018-04-30T13:38:33.261Z,5.40
2018-04-30T13:41:00.956Z,5.87
2018-04-30T13:43:28.629Z,4.97
2018-04-30T13:45:56.449Z,5.70
2018-04-30T13:48:24.129Z,6.00
2018-04-30T13:50:51.814Z,5.80
2018-04-30T13:53:19.513Z,6.40
2018-04-30T13:55:47.215Z,5.57
2018-04-30T13:58:14.926Z,5.67
2018-04-30T14:00:43.393Z,6.70
2018-04-30T14:03:11.097Z,6.53
2018-04-30T14:05:38.775Z,6.50
2018-04-30T14:08:06.482Z,6.40
2018-04-30T14:10:34.961Z,6.70
2018-04-30T14:13:03.455Z,7.27
2018-04-30T14:15:31.955Z,6.60
2018-04-30T14:17:59.629Z,8.03
2018-04-30T14:20:27.415Z,7.23
2018-04-30T14:22:55.118Z,8.47
2018-04-30T14:25:23.559Z,7.73
2018-04-30T14:27:51.287Z,8.13
2018-04-30T14:30:19.013Z,8.10
2018-04-30T14:32:47.481Z,9.27
2018-04-30T14:35:15.406Z,8.63
2018-04-30T14:37:43.121Z,8.57
2018-04-30T14:40:11.581Z,8.07
2018-04-30T14:42:39.262Z,9.43
2018-04-30T14:45:07.746Z,9.70
2018-04-30T14:47:36.212Z,10.17
2018-04-30T14:50:03.965Z,9.17
2018-04-30T14:52:31.673Z,8.53
2018-04-30T14:54:59.357Z,10.50
2018-04-30T14:57:27.065Z,10.40
2018-04-30T14:59:54.820Z,9.30
2018-04-30T15:02:22.528Z,9.90
2018-04-30T15:04:50.205Z,12.30
2018-04-30T15:07:17.917Z,10.67
2018-04-30T15:09:46.389Z,11.43
2018-04-30T15:12:14.146Z,12.20
2018-04-30T15:14:41.853Z,10.83
2018-04-30T15:17:09.536Z,12.33
2018-04-30T15:19:37.288Z,11.80
2018-04-30T15:22:05.737Z,11.47
2018-04-30T15:24:34.185Z,10.90
2018-04-30T15:27:01.896Z,10.90
2018-04-30T15:29:29.614Z,10.80
2018-04-30T15:31:57.326Z,11.00
2018-04-30T15:34:25.032Z,10.00
2018-04-30T15:36:52.741Z,10.17
2018-04-30T15:39:20.509Z,10.33
2018-04-30T15:41:48.185Z,9.67
2018-04-30T15:44:15.893Z,11.00
2018-04-30T15:46:43.575Z,10.83
2018-04-30T15:49:12.049Z,9.87
2018-04-30T15:51:40.521Z,10.13
2018-04-30T15:54:08.974Z,10.20
2018-04-30T15:56:36.673Z,9.17
2018-04-30T15:59:05.145Z,9.67
2018-04-30T16:01:33.625Z,10.03
2018-04-30T16:04:02.091Z,10.93
2018-04-30T16:06:29.867Z,10.53
2018-04-30T16:08:57.542Z,8.60
2018-04-30T16:11:26.015Z,9.43
2018-04-30T16:13:54.551Z,9.70
2018-04-30T16:16:22.225Z,8.90
2018-04-30T16:18:49.945Z,9.30
2018-04-30T16:21:17.685Z,9.17
2018-04-30T16:23:46.170Z,9.20
2018-04-30T16:26:13.885Z,8.77
2018-04-30T16:28:41.601Z,9.03
2018-04-30T16:31:09.317Z,8.47
2018-04-30T16:33:37.055Z,9.27
2018-04-30T16:36:04.934Z,9.33
2018-04-30T16:38:33.484Z,9.70
2018-04-30T16:41:01.392Z,7.93
2018-04-30T16:43:29.149Z,8.13
2018-04-30T16:45:56.861Z,8.13
2018-04-30T16:48:24.579Z,8.87
2018-04-30T16:50:52.293Z,10.10
2018-04-30T16:53:20.019Z,11.03
2018-04-30T16:55:47.793Z,10.23
2018-04-30T16:58:16.292Z,9.97
2018-04-30T17:00:44.788Z,8.53
2018-04-30T17:03:12.493Z,7.40
2018-04-30T17:05:40.218Z,7.17
2018-04-30T17:08:07.950Z,7.40
2018-04-30T17:10:40.572Z,6.77
2018-04-30T17:13:08.939Z,6.83
2018-04-30T17:15:36.641Z,7.33
2018-04-30T17:18:04.341Z,8.13
2018-04-30T17:20:32.043Z,6.53
2018-04-30T17:22:59.807Z,6.17
2018-04-30T17:25:27.633Z,5.77
2018-04-30T17:27:55.439Z,6.00
2018-04-30T17:30:23.186Z,5.83
2018-04-30T17:33:04.924Z,6.23
2018-04-30T17:35:33.517Z,7.80
2018-04-30T17:38:02.055Z,6.70
2018-04-30T17:40:29.921Z,5.73
2018-04-30T17:42:57.863Z,5.57
2018-04-30T17:45:26.367Z,5.77
2018-04-30T17:47:54.233Z,6.87
2018-04-30T17:50:21.904Z,5.70
2018-04-30T17:52:49.598Z,5.87
2018-04-30T17:55:18.070Z,6.63
2018-04-30T17:57:46.537Z,7.03
2018-04-30T18:00:14.241Z,7.47
2018-04-30T18:02:42.041Z,6.87
2018-04-30T18:05:09.907Z,8.23
2018-04-30T18:07:37.582Z,7.73
2018-04-30T18:10:05.305Z,7.00
2018-04-30T18:12:33.096Z,7.77
2018-04-30T18:15:00.863Z,7.50
2018-04-30T18:17:28.724Z,8.57
2018-04-30T18:19:56.488Z,8.00
2018-04-30T18:22:24.351Z,8.47
2018-04-30T18:24:52.215Z,8.50
2018-04-30T18:27:19.897Z,9.53
2018-04-30T18:29:47.742Z,9.07
2018-04-30T18:32:15.608Z,9.10
2018-04-30T18:34:43.300Z,9.47
2018-04-30T18:37:11.953Z,10.13
2018-04-30T18:39:39.819Z,10.17
2018-04-30T18:42:07.684Z,10.70
2018-04-30T18:44:35.447Z,9.90
2018-04-30T18:47:03.313Z,9.77
2018-04-30T18:49:31.178Z,10.80
2018-04-30T18:51:58.941Z,9.30
2018-04-30T18:54:27.416Z,9.80
2018-04-30T18:56:55.185Z,9.10
2018-04-30T18:59:22.881Z,8.67
2018-04-30T19:01:51.838Z,7.70
2018-04-30T19:04:19.604Z,8.30
2018-04-30T19:06:47.470Z,7.73
2018-04-30T19:09:15.173Z,7.27
2018-04-30T19:11:43.813Z,7.97
2018-04-30T19:14:11.574Z,7.87
2018-04-30T19:16:39.547Z,8.00
2018-04-30T19:19:09.466Z,8.17
2018-04-30T19:21:37.199Z,8.40
2018-04-30T19:24:04.925Z,9.67
2018-04-30T19:26:33.401Z,9.60
2018-04-30T19:29:01.174Z,9.43
2018-04-30T19:31:29.809Z,10.33
2018-04-30T19:33:57.484Z,8.63
2018-04-30T19:36:25.185Z,11.33
2018-04-30T19:38:53.661Z,10.97
2018-04-30T19:41:22.136Z,11.57
2018-04-30T19:43:50.684Z,12.67
2018-04-30T19:46:18.471Z,11.50
2018-04-30T19:48:46.169Z,12.73
2018-04-30T19:51:14.532Z,13.37
2018-04-30T19:53:42.447Z,12.13
2018-04-30T19:56:10.309Z,12.53
2018-04-30T19:58:38.177Z,12.43
2018-04-30T20:01:06.292Z,12.30
2018-04-30T20:03:34.600Z,12.47
2018-04-30T20:06:02.331Z,11.40
2018-04-30T20:08:30.815Z,11.20
2018-04-30T20:10:59.287Z,12.23
2018-04-30T20:13:27.743Z,12.93
2018-04-30T20:15:55.467Z,10.87
2018-04-30T20:18:23.251Z,10.50
2018-04-30T20:20:51.122Z,11.10
2018-04-30T20:23:18.984Z,11.33
2018-04-30T20:25:46.848Z,9.40
2018-04-30T20:28:14.724Z,11.27
2018-04-30T20:30:42.581Z,10.33
2018-04-30T20:33:10.445Z,10.90
2018-04-30T20:35:38.313Z,12.40
2018-04-30T20:38:06.305Z,13.00
2018-04-30T20:40:34.176Z,13.60
2018-04-30T20:43:02.016Z,13.33
2018-04-30T20:45:29.876Z,13.03
2018-04-30T20:47:57.748Z,13.47
2018-04-30T20:50:25.689Z,11.70
2018-04-30T20:52:54.293Z,12.17
2018-04-30T20:55:22.057Z,12.10
2018-04-30T20:57:49.919Z,12.37
2018-04-30T21:00:17.656Z,10.83
2018-04-30T21:02:45.960Z,11.10
2018-04-30T21:05:13.824Z,11.70
2018-04-30T21:07:41.795Z,10.20
2018-04-30T21:10:11.394Z,12.07
2018-04-30T21:12:39.733Z,12.10
2018-04-30T21:15:08.871Z,12.20
2018-04-30T21:17:36.740Z,11.30
2018-04-30T21:20:04.602Z,12.20
2018-04-30T21:22:32.472Z,12.07
2018-04-30T21:25:00.332Z,12.87
2018-04-30T21:27:28.200Z,11.53
2018-04-30T21:29:55.937Z,11.77
2018-04-30T21:32:23.688Z,11.57
2018-04-30T21:34:51.390Z,11.20
2018-04-30T21:37:19.254Z,10.60
2018-04-30T21:39:47.218Z,13.03
2018-04-30T21:42:14.982Z,10.80
2018-04-30T21:44:42.720Z,10.80
2018-04-30T21:47:10.508Z,10.50
2018-04-30T21:49:38.225Z,11.07
2018-04-30T21:52:06.704Z,9.83
2018-04-30T21:54:34.392Z,10.60
2018-04-30T21:57:02.115Z,10.03
2018-04-30T21:59:30.611Z,10.67
2018-04-30T22:01:58.317Z,10.10
2018-04-30T22:04:26.006Z,10.80
2018-04-30T22:06:53.847Z,10.23
2018-04-30T22:09:21.554Z,10.47
2018-04-30T22:11:51.929Z,10.10
2018-04-30T22:14:19.702Z,10.67
2018-04-30T22:16:47.406Z,11.83
2018-04-30T22:19:15.861Z,10.83
2018-04-30T22:21:43.605Z,11.53
2018-04-30T22:24:12.179Z,11.23
2018-04-30T22:26:39.942Z,11.10
2018-04-30T22:29:07.807Z,11.57
2018-04-30T22:31:35.570Z,12.50
2018-04-30T22:34:03.273Z,11.77
2018-04-30T22:36:31.972Z,12.47
2018-04-30T22:38:59.782Z,11.27
2018-04-30T22:41:27.648Z,12.17
2018-04-30T22:43:55.515Z,11.83
2018-04-30T22:46:23.276Z,11.50
2018-04-30T22:48:51.148Z,11.57
2018-04-30T22:51:19.009Z,14.33
2018-04-30T22:53:46.873Z,11.97
2018-04-30T22:56:14.744Z,11.97
2018-04-30T22:58:42.559Z,13.47
2018-04-30T23:01:10.367Z,12.30
2018-04-30T23:03:38.134Z,11.73
2018-04-30T23:06:06.166Z,12.00
2018-04-30T23:08:33.971Z,12.33
2018-04-30T23:11:01.889Z,13.40
2018-04-30T23:13:30.514Z,13.43
2018-04-30T23:15:58.190Z,13.27
2018-04-30T23:18:25.901Z,12.57
2018-04-30T23:20:53.617Z,13.43
2018-04-30T23:23:21.325Z,13.13
2018-04-30T23:25:49.001Z,13.23
2018-04-30T23:28:16.705Z,13.87
2018-04-30T23:30:44.550Z,12.40
2018-04-30T23:33:12.313Z,13.10
2018-04-30T23:35:40.178Z,13.67
2018-04-30T23:38:07.942Z,12.93
2018-04-30T23:40:35.806Z,13.63
2018-04-30T23:43:03.673Z,13.00
2018-04-30T23:45:31.437Z,13.70
2018-04-30T23:47:59.304Z,15.37
2018-04-30T23:50:27.167Z,13.87
2018-04-30T23:52:54.870Z,15.57
2018-04-30T23:55:23.411Z,13.63
2018-04-30T23:57:51.276Z,15.43
